Terminal Aerodrome Forecast
Issued by NWS

Home | Current Version | Previous Version | Graphics & Text | Print | Product List | Glossary On
Versions: 1 2 3 4 5 6 7 8 9 10 11 12 13 14 15 16
000
FTUS43 KGRB 221100
TAFATW
TAF
KATW 221130Z 2212/2312 19011G18KT P6SM SCT045 BKN200 WS015/21030KT
     FM221800 24013G23KT P6SM SCT050 BKN200
     FM230000 29013G22KT P6SM SCT050 BKN100
     FM230500 33007KT P6SM SKC=

USA.gov is the U.S. government's official web portal to all federal, state and local government web resources and services.